Aérodrome :
LOGIN :

S'inscrire | Disclaimer

   EN    FR    IT 

 










Légende :    VFR   VFR Marginal   IFR   IFR Intensif   IFR Très Intensif
Visi : 
Plafond : 
>= 8 km
>= 3000ft
5 à 8 km
1000 à 3000 ft
1500m à 5 km
500 à 1000 ft
800 à 1500m
200 à 500 ft
< 800m
< 200 ft
Symboles :   Orages  Brouillard  Fortes neiges  Fortes précipitations  Vent > 20 kt
SIGMETs :   Divers  Orages  Givrage  Turbulence  Onde Orograph.  Cendres Volcan.






- Altitude de l'aérodrome : 348 ft
- Code IATA : STN


EGSS - London Stansted

DERNIER METAR :
  • 211920Z AUTO 11009KT 5000 HZ OVC006 06/05 Q1001

METARs EXPIRÉS :
  • 211850Z AUTO 12009KT 5000 HZ OVC006 05/04 Q1001
  • 211820Z AUTO 12011KT 4800 BR OVC004 05/04 Q1001
  • 211750Z AUTO 11011KT 3400 BR OVC003 05/04 Q1001
  • 211720Z AUTO 11011KT 2900 BR OVC003 05/05 Q1001
  • 211650Z AUTO 11009KT 1900 BR OVC002 05/05 Q1001

TAF TAF EGSS
Valide du 21 à 18h jusqu'au 23 à 00h UTC


211655Z 2118/2224 11010KT 5000 HZ SCT002 BKN005
TEMPO 2118/2203 1200 BR OVC002
PROB30
TEMPO 2118/2202 0300 FG BKN001
TEMPO 2122/2206 RA
BECMG 2203/2206 9999 NSW SCT009
TEMPO 2206/2215 6000 RA SHRA BKN009
PROB40
TEMPO 2206/2214 4000 +SHRA
TEMPO 2215/2224 BKN012
PROB30
TEMPO 2217/2222 10015G25KT
ATIS : +44 1279 669 325



MET'MAP, la Météo Aéronautique d'un coup d'oeil ! - Copyright ORBIFLY Décembre 2007 - Disclaimer

ORBIFLY MET'MAP TEAM :

Programmation & Développement : Alexandra Zaïnal
Conception & Développement : Baudouin d'Aumeries
Co-Programmation & Développement : Marc-Olivier Méhu
Soutien technique & logistique : Manuel Goepfert

Contact : metmap@orbifly.com




SOURCES & CREDITS :

   NOAA